Time;durP1;ratioP1;P1;durP2;ratioP2;P2;SDS_P1;SDS_P2;PMS_P1;PMS_P2;Temp;Humidity;BMP_temperature;BMP_pressure;BME280_temperature;BME280_humidity;BME280_pressure;Samples;Min_cycle;Max_cycle;Signal;HPM_P1;HPM_P2
2021/05/30 00:01:23;;;;;;;2.87;2.28;;;;;;;;;;4402496;32;20512;-53
2021/05/30 00:03:49;;;;;;;4.32;2.00;;;;;;;;;;4402290;32;20679;-54
2021/05/30 00:06:14;;;;;;;3.67;2.42;;;;;;;;;;4402246;32;20229;-54
2021/05/30 00:08:40;;;;;;;3.35;2.55;;;;;;;;;;4401609;32;20217;-54
2021/05/30 00:11:05;;;;;;;6.20;2.25;;;;;;;;;;4402385;32;20272;-54
2021/05/30 00:13:31;;;;;;;4.40;2.20;;;;;;;;;;4415846;32;20209;-54
2021/05/30 00:15:56;;;;;;;8.65;2.08;;;;;;;;;;4417424;32;20272;-53
2021/05/30 00:18:22;;;;;;;4.53;2.90;;;;;;;;;;4417397;32;20262;-54
2021/05/30 00:20:47;;;;;;;2.30;2.10;;;;;;;;;;4417648;32;20735;-56
2021/05/30 00:23:13;;;;;;;5.10;2.75;;;;;;;;;;4417429;32;20243;-54
2021/05/30 00:25:38;;;;;;;3.17;2.67;;;;;;;;;;4417418;32;20284;-55
2021/05/30 00:28:04;;;;;;;3.30;1.95;;;;;;;;;;4417513;32;20291;-54
2021/05/30 00:30:29;;;;;;;7.53;2.40;;;;;;;;;;4416139;32;20272;-54
2021/05/30 00:32:55;;;;;;;5.32;2.15;;;;;;;;;;4402338;32;20652;-55
2021/05/30 00:35:20;;;;;;;2.55;1.90;;;;;;;;;;4388390;32;20277;-54
2021/05/30 00:37:46;;;;;;;10.48;2.42;;;;;;;;;;4388221;32;20373;-54
2021/05/30 00:40:11;;;;;;;6.57;2.40;;;;;;;;;;4388217;32;20767;-54
2021/05/30 00:42:37;;;;;;;1.90;1.70;;;;;;;;;;4402310;32;20605;-54
2021/05/30 00:45:04;;;;;;;7.28;1.90;;;;;;;;;;4416792;32;20205;-54
2021/05/30 00:47:29;;;;;;;3.03;1.80;;;;;;;;;;4417386;32;20248;-54
2021/05/30 00:49:55;;;;;;;7.35;2.30;;;;;;;;;;4417115;32;20633;-54
2021/05/30 00:52:20;;;;;;;5.78;1.77;;;;;;;;;;4417263;32;20221;-54
2021/05/30 00:54:45;;;;;;;2.37;1.95;;;;;;;;;;4417236;32;20299;-54
2021/05/30 00:57:11;;;;;;;4.60;2.25;;;;;;;;;;4417216;32;20221;-54
2021/05/30 00:59:37;;;;;;;11.12;2.03;;;;;;;;;;4417996;32;20194;-54
2021/05/30 01:02:03;;;;;;;8.25;1.90;;;;;;;;;;4420088;32;20657;-53
2021/05/30 01:04:29;;;;;;;8.30;1.92;;;;;;;;;;4419723;32;20250;-53
2021/05/30 01:06:57;;;;;;;4.65;2.00;;;;;;;;;;4419010;32;20426;-54
2021/05/30 01:09:25;;;;;;;4.10;2.15;;;;;;;;;;4418716;32;20240;-53
2021/05/30 01:11:51;;;;;;;5.20;1.85;;;;;;;;;;4418788;32;20244;-53
2021/05/30 01:14:16;;;;;;;2.25;1.83;;;;;;;;;;4418804;32;20193;-53
2021/05/30 01:16:42;;;;;;;2.40;1.87;;;;;;;;;;4419103;32;20338;-53
2021/05/30 01:19:10;;;;;;;2.75;2.00;;;;;;;;;;4412750;32;20244;-54
2021/05/30 01:21:36;;;;;;;4.05;1.73;;;;;;;;;;4403637;32;20229;-53
2021/05/30 01:24:01;;;;;;;4.78;2.15;;;;;;;;;;4403484;32;20667;-54
2021/05/30 01:26:27;;;;;;;2.72;1.60;;;;;;;;;;4403399;32;20308;-55
2021/05/30 01:28:53;;;;;;;6.03;2.37;;;;;;;;;;4403406;32;20202;-54
2021/05/30 01:31:18;;;;;;;2.17;1.77;;;;;;;;;;4409424;32;20222;-54
2021/05/30 01:33:44;;;;;;;4.03;2.58;;;;;;;;;;4418623;32;20259;-54
2021/05/30 01:36:10;;;;;;;2.85;2.00;;;;;;;;;;4418649;32;20232;-54
2021/05/30 01:38:36;;;;;;;5.20;2.33;;;;;;;;;;4418512;32;20224;-54
2021/05/30 01:41:03;;;;;;;2.65;1.90;;;;;;;;;;4418672;32;20710;-54
2021/05/30 01:43:28;;;;;;;7.43;2.25;;;;;;;;;;4418373;32;20205;-54
2021/05/30 01:45:54;;;;;;;4.32;1.92;;;;;;;;;;4418600;32;20327;-53
2021/05/30 01:48:20;;;;;;;3.28;2.08;;;;;;;;;;4418712;32;20594;-53
2021/05/30 01:50:48;;;;;;;2.62;2.08;;;;;;;;;;4418274;32;20624;-54
2021/05/30 01:53:29;;;;;;;5.07;2.03;;;;;;;;;;4418733;32;20205;-53
2021/05/30 01:58:23;;;;;;;4.40;2.28;;;;;;;;;;4418098;32;20668;-53
2021/05/30 02:00:50;;;;;;;5.80;2.40;;;;;;;;;;4418426;32;20765;-54
2021/05/30 02:03:17;;;;;;;2.15;1.80;;;;;;;;;;4418051;32;20254;-54
2021/05/30 02:05:46;;;;;;;4.15;1.90;;;;;;;;;;4418339;32;20249;-54
2021/05/30 02:08:12;;;;;;;2.45;2.25;;;;;;;;;;4418751;32;20260;-54
2021/05/30 02:10:38;;;;;;;3.03;2.22;;;;;;;;;;4418335;32;20316;-53
2021/05/30 02:13:05;;;;;;;4.80;1.85;;;;;;;;;;4418599;32;20660;-53
2021/05/30 02:15:31;;;;;;;3.37;2.17;;;;;;;;;;4419231;32;20281;-53
2021/05/30 02:17:56;;;;;;;6.10;2.20;;;;;;;;;;4419123;32;20269;-53
2021/05/30 02:20:33;;;;;;;9.10;2.20;;;;;;;;;;4418811;32;20280;-53
2021/05/30 02:22:59;;;;;;;2.30;2.10;;;;;;;;;;4419010;32;20205;-54
2021/05/30 02:25:25;;;;;;;7.43;2.40;;;;;;;;;;4418839;32;20331;-53
2021/05/30 02:27:51;;;;;;;4.47;2.03;;;;;;;;;;4418735;32;20221;-54
2021/05/30 02:30:17;;;;;;;3.20;2.17;;;;;;;;;;4418876;32;20231;-55
2021/05/30 02:32:43;;;;;;;4.20;2.37;;;;;;;;;;4403749;32;20294;-53
2021/05/30 02:35:09;;;;;;;3.40;2.33;;;;;;;;;;4403415;32;20681;-53
2021/05/30 02:37:34;;;;;;;2.53;2.00;;;;;;;;;;4403643;32;20369;-53
2021/05/30 02:40:00;;;;;;;3.40;2.55;;;;;;;;;;4403247;32;20642;-54
2021/05/30 02:42:25;;;;;;;6.78;2.22;;;;;;;;;;4403428;32;20670;-54
2021/05/30 02:44:50;;;;;;;4.68;2.58;;;;;;;;;;4416806;32;20217;-55
2021/05/30 02:47:16;;;;;;;7.65;2.95;;;;;;;;;;4418369;32;20274;-54
2021/05/30 02:49:41;;;;;;;5.70;3.08;;;;;;;;;;4408898;32;20209;-54
2021/05/30 02:52:07;;;;;;;10.55;2.75;;;;;;;;;;4406453;32;20310;-53
2021/05/30 02:54:32;;;;;;;3.28;2.92;;;;;;;;;;4403068;32;20252;-53
2021/05/30 02:56:58;;;;;;;7.85;2.97;;;;;;;;;;4403278;32;20236;-54
2021/05/30 02:59:23;;;;;;;11.75;3.62;;;;;;;;;;4403230;32;20290;-54
2021/05/30 03:01:49;;;;;;;13.00;4.12;;;;;;;;;;4403206;32;20217;-54
2021/05/30 03:04:14;;;;;;;4.32;2.75;;;;;;;;;;4403120;32;20366;-54
2021/05/30 03:06:40;;;;;;;9.60;3.17;;;;;;;;;;4402989;32;20666;-54
2021/05/30 03:09:05;;;;;;;6.78;2.58;;;;;;;;;;4389227;32;20729;-54
2021/05/30 03:11:30;;;;;;;5.35;2.67;;;;;;;;;;4403936;32;20240;-54
2021/05/30 03:13:57;;;;;;;7.30;2.65;;;;;;;;;;4404139;32;20259;-55
2021/05/30 03:16:23;;;;;;;3.25;2.80;;;;;;;;;;4418019;32;20229;-54
2021/05/30 03:18:49;;;;;;;5.28;2.85;;;;;;;;;;4417957;32;20209;-54
2021/05/30 03:21:15;;;;;;;2.83;2.35;;;;;;;;;;4417954;32;20277;-54
2021/05/30 03:23:41;;;;;;;5.95;2.95;;;;;;;;;;4417638;32;20202;-54
2021/05/30 03:26:06;;;;;;;6.60;2.47;;;;;;;;;;4404036;32;20303;-54
2021/05/30 03:28:32;;;;;;;6.62;3.80;;;;;;;;;;4417746;32;20239;-54
2021/05/30 03:30:58;;;;;;;12.60;4.62;;;;;;;;;;4413747;32;20287;-54
2021/05/30 03:33:23;;;;;;;10.80;3.12;;;;;;;;;;4403041;32;20206;-54
2021/05/30 03:35:49;;;;;;;3.28;2.37;;;;;;;;;;4402843;32;20345;-55
2021/05/30 03:38:16;;;;;;;3.33;2.75;;;;;;;;;;4402723;32;20274;-54
2021/05/30 03:40:50;;;;;;;5.03;2.22;;;;;;;;;;4402911;32;20201;-54
2021/05/30 03:43:16;;;;;;;2.62;1.70;;;;;;;;;;4406125;32;20234;-54
2021/05/30 03:45:42;;;;;;;2.20;1.80;;;;;;;;;;4417837;32;20261;-54
2021/05/30 03:48:07;;;;;;;4.57;2.30;;;;;;;;;;4418135;32;20225;-54
2021/05/30 03:50:34;;;;;;;2.97;1.87;;;;;;;;;;4403643;32;20308;-54
2021/05/30 03:53:00;;;;;;;5.12;2.92;;;;;;;;;;4417986;32;20282;-54
2021/05/30 03:55:26;;;;;;;5.57;2.17;;;;;;;;;;4417949;32;20276;-56
2021/05/30 03:57:51;;;;;;;7.00;2.25;;;;;;;;;;4417743;32;20349;-54
2021/05/30 04:00:18;;;;;;;4.00;2.35;;;;;;;;;;4403736;32;20307;-54
2021/05/30 04:02:45;;;;;;;6.85;2.33;;;;;;;;;;4417459;32;20221;-53
2021/05/30 04:05:12;;;;;;;8.63;3.83;;;;;;;;;;4417274;32;20293;-54
2021/05/30 04:07:37;;;;;;;7.90;2.75;;;;;;;;;;4417598;32;20213;-54
2021/05/30 04:10:09;;;;;;;6.82;2.55;;;;;;;;;;4417331;32;20660;-54
2021/05/30 04:12:36;;;;;;;5.00;2.90;;;;;;;;;;4417587;32;20288;-54
2021/05/30 04:15:03;;;;;;;4.45;2.70;;;;;;;;;;4417467;32;20217;-54
2021/05/30 04:17:29;;;;;;;11.27;3.30;;;;;;;;;;4417558;32;20739;-54
2021/05/30 04:19:54;;;;;;;11.60;3.80;;;;;;;;;;4406565;32;20295;-54
2021/05/30 04:22:19;;;;;;;6.70;3.00;;;;;;;;;;4402465;32;20730;-54
2021/05/30 04:24:45;;;;;;;15.27;4.05;;;;;;;;;;4388487;32;20291;-54
2021/05/30 04:27:10;;;;;;;9.82;3.42;;;;;;;;;;4402158;32;20213;-54
2021/05/30 04:29:36;;;;;;;4.40;3.22;;;;;;;;;;4402040;32;20251;-54
2021/05/30 04:32:02;;;;;;;3.62;2.70;;;;;;;;;;4412768;32;20312;-54
2021/05/30 04:34:29;;;;;;;9.85;2.78;;;;;;;;;;4418417;32;20658;-53
2021/05/30 04:36:54;;;;;;;4.75;2.87;;;;;;;;;;4420327;32;20315;-53
2021/05/30 04:39:20;;;;;;;4.32;2.50;;;;;;;;;;4420194;32;20205;-53
2021/05/30 04:41:45;;;;;;;9.23;2.45;;;;;;;;;;4420245;32;20279;-53
2021/05/30 04:44:10;;;;;;;8.48;3.35;;;;;;;;;;4419910;32;20356;-54
2021/05/30 04:46:36;;;;;;;7.35;2.83;;;;;;;;;;4420337;32;20247;-54
2021/05/30 04:49:02;;;;;;;5.93;2.47;;;;;;;;;;4420098;32;20347;-54
2021/05/30 04:51:27;;;;;;;8.48;3.40;;;;;;;;;;4419832;32;20280;-55
2021/05/30 04:53:55;;;;;;;3.78;2.53;;;;;;;;;;4419932;32;20232;-54
2021/05/30 04:56:22;;;;;;;13.15;4.50;;;;;;;;;;4406118;32;20244;-54
2021/05/30 04:58:48;;;;;;;6.85;4.93;;;;;;;;;;4419753;32;20268;-54
2021/05/30 05:01:14;;;;;;;6.43;4.40;;;;;;;;;;4420032;32;20244;-54
2021/05/30 05:03:39;;;;;;;8.52;4.87;;;;;;;;;;4420129;32;20198;-54
2021/05/30 05:06:05;;;;;;;18.23;4.43;;;;;;;;;;4419768;32;20304;-54
2021/05/30 05:08:30;;;;;;;6.28;3.50;;;;;;;;;;4419661;32;20276;-54
2021/05/30 05:10:56;;;;;;;5.03;3.35;;;;;;;;;;4419786;32;20692;-53
2021/05/30 05:13:22;;;;;;;7.50;4.25;;;;;;;;;;4418984;32;20615;-53
2021/05/30 05:15:49;;;;;;;8.40;4.68;;;;;;;;;;4412964;32;20632;-53
2021/05/30 05:18:16;;;;;;;5.62;4.47;;;;;;;;;;4416276;32;20205;-53
2021/05/30 05:20:43;;;;;;;11.65;4.62;;;;;;;;;;4404937;32;20626;-53
2021/05/30 05:23:08;;;;;;;9.75;4.07;;;;;;;;;;4399464;32;20672;-55
2021/05/30 05:25:36;;;;;;;11.77;3.20;;;;;;;;;;4418770;32;20265;-57
2021/05/30 05:28:02;;;;;;;5.18;3.42;;;;;;;;;;4418293;32;20282;-55
2021/05/30 05:30:28;;;;;;;6.70;3.22;;;;;;;;;;4418124;32;20237;-56
2021/05/30 05:32:54;;;;;;;3.62;3.20;;;;;;;;;;4408953;32;20233;-55
2021/05/30 05:35:19;;;;;;;4.47;3.37;;;;;;;;;;4419017;32;20272;-56
2021/05/30 05:37:45;;;;;;;5.25;3.35;;;;;;;;;;4418525;32;20291;-55
2021/05/30 05:40:11;;;;;;;7.55;3.50;;;;;;;;;;4418953;32;20300;-56
2021/05/30 05:42:37;;;;;;;7.35;4.10;;;;;;;;;;4418405;32;20257;-54
2021/05/30 05:45:04;;;;;;;13.18;4.30;;;;;;;;;;4418631;32;20280;-54
2021/05/30 05:47:29;;;;;;;16.95;9.15;;;;;;;;;;4418202;32;20279;-55
2021/05/30 05:49:55;;;;;;;11.95;4.68;;;;;;;;;;4418938;32;20292;-54
2021/05/30 05:52:20;;;;;;;11.07;3.92;;;;;;;;;;4415145;32;20221;-55
2021/05/30 05:54:46;;;;;;;9.48;3.37;;;;;;;;;;4418690;32;20284;-54
2021/05/30 05:57:11;;;;;;;10.60;3.22;;;;;;;;;;4405022;32;20232;-54
2021/05/30 05:59:37;;;;;;;5.20;3.15;;;;;;;;;;4419140;32;20664;-55
2021/05/30 06:02:02;;;;;;;5.37;2.75;;;;;;;;;;4408994;32;20593;-54
2021/05/30 06:04:28;;;;;;;11.98;3.95;;;;;;;;;;4418474;32;20657;-54
2021/05/30 06:06:53;;;;;;;10.23;3.20;;;;;;;;;;4419084;32;20636;-54
2021/05/30 06:09:19;;;;;;;10.10;3.92;;;;;;;;;;4418579;32;20201;-54
2021/05/30 06:11:45;;;;;;;8.20;5.45;;;;;;;;;;4416187;32;20319;-54
2021/05/30 06:14:10;;;;;;;23.05;9.82;;;;;;;;;;4416551;32;20201;-55
2021/05/30 06:16:35;;;;;;;15.82;7.12;;;;;;;;;;4418764;32;20240;-55
2021/05/30 06:19:01;;;;;;;12.48;8.02;;;;;;;;;;4399188;32;20233;-54
2021/05/30 06:21:27;;;;;;;35.25;10.23;;;;;;;;;;4403516;32;20304;-54
2021/05/30 06:23:52;;;;;;;6.05;4.28;;;;;;;;;;4414492;32;20612;-54
2021/05/30 06:26:17;;;;;;;18.58;6.57;;;;;;;;;;4407962;32;20638;-54
2021/05/30 06:28:43;;;;;;;4.40;2.95;;;;;;;;;;4413403;32;20228;-56
2021/05/30 06:31:08;;;;;;;6.87;3.65;;;;;;;;;;4409365;32;20512;-55
2021/05/30 06:33:34;;;;;;;4.07;2.75;;;;;;;;;;4411258;32;20313;-56
2021/05/30 06:35:59;;;;;;;4.95;2.75;;;;;;;;;;4411359;32;20646;-55
2021/05/30 06:38:25;;;;;;;8.80;3.60;;;;;;;;;;4409092;32;20344;-54
2021/05/30 06:40:50;;;;;;;7.05;2.75;;;;;;;;;;4408796;32;20285;-55
2021/05/30 06:43:16;;;;;;;4.70;3.40;;;;;;;;;;4409855;32;20209;-55
2021/05/30 06:45:41;;;;;;;6.07;3.17;;;;;;;;;;4409330;32;20280;-54
2021/05/30 06:48:07;;;;;;;16.17;4.62;;;;;;;;;;4410220;32;20331;-54
2021/05/30 06:50:32;;;;;;;8.23;4.62;;;;;;;;;;4406406;32;20353;-55
2021/05/30 06:52:58;;;;;;;5.37;4.15;;;;;;;;;;4414506;32;20240;-53
2021/05/30 06:55:23;;;;;;;5.87;3.97;;;;;;;;;;4415277;32;20279;-54
2021/05/30 06:57:50;;;;;;;7.65;3.87;;;;;;;;;;4416893;32;20753;-54
2021/05/30 07:00:16;;;;;;;6.57;3.37;;;;;;;;;;4417851;32;20288;-53
2021/05/30 07:02:41;;;;;;;6.82;2.90;;;;;;;;;;4415195;32;20253;-53
2021/05/30 07:05:08;;;;;;;6.93;3.50;;;;;;;;;;4413012;32;20212;-53
2021/05/30 07:07:34;;;;;;;7.15;3.10;;;;;;;;;;4414643;32;20286;-53
2021/05/30 07:09:59;;;;;;;4.07;2.45;;;;;;;;;;4415005;32;20344;-53
2021/05/30 07:12:25;;;;;;;5.65;2.33;;;;;;;;;;4417705;32;20280;-53
2021/05/30 07:14:51;;;;;;;10.05;2.62;;;;;;;;;;4403624;32;20232;-53
2021/05/30 07:17:17;;;;;;;8.10;2.37;;;;;;;;;;4415473;32;20225;-53
2021/05/30 07:19:46;;;;;;;10.57;2.30;;;;;;;;;;4414766;32;20365;-53
2021/05/30 07:22:12;;;;;;;4.07;1.80;;;;;;;;;;4407847;32;20260;-53
2021/05/30 07:24:37;;;;;;;2.53;2.25;;;;;;;;;;4403171;32;20198;-53
2021/05/30 07:27:03;;;;;;;8.57;1.75;;;;;;;;;;4388691;32;20318;-53
2021/05/30 07:29:28;;;;;;;6.47;1.67;;;;;;;;;;4401883;32;20198;-53
2021/05/30 07:31:53;;;;;;;2.05;1.45;;;;;;;;;;4410170;32;20217;-53
2021/05/30 07:34:19;;;;;;;2.78;1.67;;;;;;;;;;4410708;32;20584;-53
2021/05/30 07:36:45;;;;;;;2.62;1.70;;;;;;;;;;4401942;32;20297;-53
2021/05/30 07:39:10;;;;;;;6.32;1.62;;;;;;;;;;4408458;32;20217;-54
2021/05/30 07:41:36;;;;;;;5.12;1.83;;;;;;;;;;4427352;32;20542;-53
2021/05/30 07:44:02;;;;;;;7.87;1.85;;;;;;;;;;4416248;32;20216;-53
2021/05/30 07:46:28;;;;;;;3.55;1.83;;;;;;;;;;4401185;32;20339;-54
2021/05/30 07:48:53;;;;;;;3.55;1.70;;;;;;;;;;4416269;32;20236;-54
2021/05/30 07:51:19;;;;;;;2.50;2.00;;;;;;;;;;4415805;32;20233;-54
2021/05/30 07:53:44;;;;;;;2.45;1.30;;;;;;;;;;4415298;32;20430;-54
2021/05/30 07:56:11;;;;;;;3.70;1.52;;;;;;;;;;4416624;32;20243;-55
2021/05/30 07:58:37;;;;;;;2.97;1.77;;;;;;;;;;4417605;32;20549;-53
2021/05/30 08:01:02;;;;;;;2.28;1.65;;;;;;;;;;4413203;32;20308;-53
2021/05/30 08:03:28;;;;;;;7.57;1.30;;;;;;;;;;4407789;32;20283;-54
2021/05/30 08:05:55;;;;;;;6.75;1.55;;;;;;;;;;4416382;32;20626;-53
2021/05/30 08:08:21;;;;;;;1.33;1.15;;;;;;;;;;4417320;32;20273;-53
2021/05/30 08:10:48;;;;;;;3.65;1.50;;;;;;;;;;4419257;32;20248;-58
2021/05/30 08:13:14;;;;;;;1.98;1.17;;;;;;;;;;4420496;32;20561;-56
2021/05/30 08:15:40;;;;;;;2.65;1.45;;;;;;;;;;4419679;32;20565;-55
2021/05/30 08:18:05;;;;;;;1.73;1.40;;;;;;;;;;4420645;32;20365;-55
2021/05/30 08:20:31;;;;;;;6.50;1.58;;;;;;;;;;4405977;32;20293;-57
2021/05/30 08:22:56;;;;;;;1.87;1.55;;;;;;;;;;4408296;32;20286;-55
2021/05/30 08:25:22;;;;;;;8.88;1.65;;;;;;;;;;4418907;32;20276;-54
2021/05/30 08:27:48;;;;;;;2.42;1.30;;;;;;;;;;4418806;32;20301;-54
2021/05/30 08:30:16;;;;;;;2.50;1.45;;;;;;;;;;4420634;32;20726;-53
2021/05/30 08:32:41;;;;;;;1.55;1.25;;;;;;;;;;4411717;32;20221;-53
2021/05/30 08:35:07;;;;;;;4.40;1.33;;;;;;;;;;4419709;32;20570;-53
2021/05/30 08:37:34;;;;;;;1.95;1.40;;;;;;;;;;4420629;32;20245;-53
2021/05/30 08:40:00;;;;;;;4.00;1.40;;;;;;;;;;4420082;32;20212;-54
2021/05/30 08:42:26;;;;;;;1.62;1.52;;;;;;;;;;4420936;32;20221;-53
2021/05/30 08:44:52;;;;;;;3.47;1.77;;;;;;;;;;4415909;32;20502;-53
2021/05/30 08:47:22;;;;;;;4.07;1.65;;;;;;;;;;4413714;32;20587;-53
2021/05/30 08:49:48;;;;;;;2.35;1.60;;;;;;;;;;4420287;32;20645;-54
2021/05/30 08:52:14;;;;;;;2.47;1.58;;;;;;;;;;4419848;32;20229;-53
2021/05/30 08:54:39;;;;;;;2.37;1.87;;;;;;;;;;4420704;32;20732;-53
2021/05/30 08:57:05;;;;;;;6.80;1.75;;;;;;;;;;4412941;32;20277;-53
2021/05/30 08:59:33;;;;;;;4.03;1.55;;;;;;;;;;4404270;32;20197;-52
2021/05/30 09:02:11;;;;;;;5.93;2.22;;;;;;;;;;4419150;32;20255;-52
2021/05/30 09:04:54;;;;;;;8.57;1.40;;;;;;;;;;4419696;32;20343;-52
2021/05/30 09:07:55;;;;;;;5.60;2.08;;;;;;;;;;4419694;32;20348;-53
2021/05/30 09:10:26;;;;;;;4.12;1.80;;;;;;;;;;4342738;33;20248;-54
2021/05/30 09:13:15;;;;;;;3.67;1.35;;;;;;;;;;4395459;32;20719;-54
2021/05/30 09:15:51;;;;;;;6.60;2.12;;;;;;;;;;4405487;32;20212;-52
2021/05/30 09:18:33;;;;;;;5.15;2.25;;;;;;;;;;4415025;32;20641;-54
2021/05/30 09:21:01;;;;;;;2.35;1.73;;;;;;;;;;4419447;32;20201;-54
2021/05/30 09:23:51;;;;;;;6.37;2.05;;;;;;;;;;4418533;32;20279;-54
2021/05/30 09:26:23;;;;;;;3.60;1.60;;;;;;;;;;4420191;32;20262;-54
2021/05/30 09:29:09;;;;;;;2.85;1.30;;;;;;;;;;4420076;32;20213;-53
2021/05/30 09:31:56;;;;;;;4.95;1.80;;;;;;;;;;4411174;32;20260;-53
2021/05/30 09:34:24;;;;;;;4.95;1.83;;;;;;;;;;4419525;32;20235;-54
2021/05/30 09:36:51;;;;;;;5.03;2.58;;;;;;;;;;4419627;32;20225;-54
2021/05/30 09:39:37;;;;;;;3.28;1.62;;;;;;;;;;4419971;32;20209;-54
2021/05/30 09:42:22;;;;;;;10.10;2.45;;;;;;;;;;4419420;32;20313;-55
2021/05/30 09:44:58;;;;;;;6.75;2.70;;;;;;;;;;4406125;32;20515;-53
2021/05/30 09:47:34;;;;;;;10.07;2.05;;;;;;;;;;4405160;32;20279;-53
2021/05/30 09:49:59;;;;;;;2.67;1.77;;;;;;;;;;4419176;32;20229;-53
2021/05/30 09:52:43;;;;;;;5.75;2.12;;;;;;;;;;4418755;32;20292;-54
2021/05/30 09:55:12;;;;;;;5.62;2.05;;;;;;;;;;4405161;32;20640;-54
2021/05/30 09:57:38;;;;;;;3.12;1.75;;;;;;;;;;4419647;32;20245;-53
2021/05/30 10:00:05;;;;;;;6.65;1.75;;;;;;;;;;4418202;32;20222;-53
2021/05/30 10:02:32;;;;;;;6.28;2.12;;;;;;;;;;4405127;32;20329;-54
2021/05/30 10:04:59;;;;;;;2.05;1.40;;;;;;;;;;4418939;32;20282;-53
2021/05/30 10:07:25;;;;;;;2.58;1.35;;;;;;;;;;4418508;32;20354;-54
2021/05/30 10:09:51;;;;;;;1.73;1.50;;;;;;;;;;4418112;32;20218;-54
2021/05/30 10:12:18;;;;;;;4.28;1.55;;;;;;;;;;4419085;32;20351;-54
2021/05/30 10:14:44;;;;;;;2.22;1.73;;;;;;;;;;4418398;32;20247;-53
2021/05/30 10:17:11;;;;;;;5.53;1.73;;;;;;;;;;4418276;32;20665;-54
2021/05/30 10:19:45;;;;;;;2.42;1.45;;;;;;;;;;4418172;32;20652;-53
2021/05/30 10:22:11;;;;;;;4.97;1.40;;;;;;;;;;4418651;32;20501;-53
2021/05/30 10:24:43;;;;;;;15.63;1.98;;;;;;;;;;4417471;32;20267;-53
2021/05/30 10:27:20;;;;;;;3.50;1.17;;;;;;;;;;4417937;32;20264;-53
2021/05/30 10:30:11;;;;;;;4.43;1.20;;;;;;;;;;4418151;32;20716;-53
2021/05/30 10:32:46;;;;;;;3.70;1.50;;;;;;;;;;4418354;32;20638;-53
2021/05/30 10:35:20;;;;;;;4.40;1.23;;;;;;;;;;4417500;32;20334;-53
2021/05/30 10:37:50;;;;;;;2.00;1.20;;;;;;;;;;4418540;32;20216;-54
2021/05/30 10:40:21;;;;;;;1.70;1.30;;;;;;;;;;4416511;32;20353;-54
2021/05/30 10:43:09;;;;;;;1.90;1.55;;;;;;;;;;4417031;32;20324;-53
2021/05/30 10:45:41;;;;;;;4.00;1.65;;;;;;;;;;4418610;32;20784;-53
2021/05/30 10:48:06;;;;;;;1.95;1.45;;;;;;;;;;4418657;32;20296;-54
2021/05/30 10:50:40;;;;;;;1.95;1.40;;;;;;;;;;4417953;32;20396;-53
2021/05/30 10:53:38;;;;;;;3.15;1.48;;;;;;;;;;4418832;32;20395;-54
2021/05/30 10:56:19;;;;;;;1.67;0.90;;;;;;;;;;4400041;32;20295;-53
2021/05/30 10:59:05;;;;;;;4.35;1.50;;;;;;;;;;4416560;32;20576;-54
2021/05/30 11:01:34;;;;;;;1.67;1.30;;;;;;;;;;4416762;32;20229;-55
2021/05/30 11:06:51;;;;;;;3.17;1.40;;;;;;;;;;4416650;32;20209;-54
2021/05/30 11:09:17;;;;;;;2.80;1.45;;;;;;;;;;4417586;32;20217;-53
2021/05/30 11:11:43;;;;;;;5.37;1.92;;;;;;;;;;4418257;32;20224;-53
2021/05/30 11:14:14;;;;;;;3.58;1.85;;;;;;;;;;4418278;32;20196;-53
2021/05/30 11:16:45;;;;;;;9.52;2.25;;;;;;;;;;4418323;32;20538;-53
2021/05/30 11:19:14;;;;;;;6.55;2.70;;;;;;;;;;4417944;32;20236;-54
2021/05/30 11:21:48;;;;;;;8.55;3.15;;;;;;;;;;4418159;32;20229;-53
2021/05/30 11:24:19;;;;;;;7.45;3.25;;;;;;;;;;4418091;32;20264;-53
2021/05/30 11:27:05;;;;;;;6.70;2.85;;;;;;;;;;4418146;32;20511;-53
2021/05/30 11:29:31;;;;;;;3.00;2.12;;;;;;;;;;4417924;32;20217;-53
2021/05/30 11:32:02;;;;;;;3.22;1.83;;;;;;;;;;4407807;32;20225;-53
2021/05/30 11:34:30;;;;;;;4.20;1.90;;;;;;;;;;4402744;32;20282;-53
2021/05/30 11:37:12;;;;;;;8.65;1.87;;;;;;;;;;4389331;32;20336;-53
2021/05/30 11:39:38;;;;;;;4.18;1.77;;;;;;;;;;4402671;32;20217;-53
2021/05/30 11:42:05;;;;;;;5.90;2.05;;;;;;;;;;4402890;32;20229;-53
2021/05/30 11:44:32;;;;;;;2.25;1.50;;;;;;;;;;4414080;32;20239;-54
2021/05/30 11:47:01;;;;;;;1.87;1.33;;;;;;;;;;4418208;32;20220;-54
2021/05/30 11:49:35;;;;;;;4.35;1.58;;;;;;;;;;4417965;32;20237;-55
2021/05/30 11:52:04;;;;;;;6.28;2.20;;;;;;;;;;4418188;32;20733;-54
2021/05/30 11:54:52;;;;;;;4.32;1.87;;;;;;;;;;4417976;32;20213;-54
2021/05/30 11:57:18;;;;;;;5.50;2.22;;;;;;;;;;4418518;32;20288;-58
2021/05/30 11:59:52;;;;;;;20.35;2.45;;;;;;;;;;4418014;32;20266;-56
2021/05/30 12:02:28;;;;;;;5.25;2.70;;;;;;;;;;4418427;32;20251;-57
2021/05/30 12:05:10;;;;;;;5.15;2.20;;;;;;;;;;4404433;32;20221;-58
2021/05/30 12:07:37;;;;;;;2.87;1.98;;;;;;;;;;4418383;32;20845;-58
2021/05/30 12:10:07;;;;;;;6.95;2.40;;;;;;;;;;4417784;32;20268;-58
2021/05/30 12:12:40;;;;;;;2.47;1.87;;;;;;;;;;4404424;32;20719;-57
2021/05/30 12:15:22;;;;;;;3.45;2.33;;;;;;;;;;4417807;32;20276;-57
2021/05/30 12:17:51;;;;;;;6.12;2.12;;;;;;;;;;4417855;32;20303;-57
2021/05/30 12:20:19;;;;;;;3.25;2.20;;;;;;;;;;4418008;32;20617;-59
2021/05/30 12:22:45;;;;;;;7.68;2.47;;;;;;;;;;4418099;32;20216;-58
2021/05/30 12:25:11;;;;;;;3.03;1.65;;;;;;;;;;4417639;32;20789;-58
2021/05/30 12:27:37;;;;;;;11.63;2.40;;;;;;;;;;4404063;32;20264;-57
2021/05/30 12:30:04;;;;;;;6.37;2.12;;;;;;;;;;4417855;32;20713;-57
2021/05/30 12:32:29;;;;;;;27.27;2.87;;;;;;;;;;4403452;32;20225;-57
2021/05/30 12:34:55;;;;;;;4.78;2.22;;;;;;;;;;4402391;32;20273;-57
2021/05/30 12:37:47;;;;;;;2.42;1.73;;;;;;;;;;4402945;32;20217;-57
2021/05/30 12:40:14;;;;;;;2.20;2.00;;;;;;;;;;4402671;32;20189;-57
2021/05/30 12:42:41;;;;;;;10.93;2.05;;;;;;;;;;4402976;32;20292;-57
2021/05/30 12:45:10;;;;;;;3.72;2.00;;;;;;;;;;4402410;32;20813;-57
2021/05/30 12:47:42;;;;;;;8.48;2.50;;;;;;;;;;4402593;32;20312;-57
2021/05/30 12:50:10;;;;;;;22.52;16.55;;;;;;;;;;4402216;32;20646;-58
2021/05/30 12:52:48;;;;;;;7.82;3.60;;;;;;;;;;4417373;32;20312;-57
2021/05/30 12:55:15;;;;;;;2.75;2.35;;;;;;;;;;4417984;32;20267;-57
2021/05/30 12:57:49;;;;;;;10.52;2.28;;;;;;;;;;4420561;32;20212;-57
2021/05/30 13:00:30;;;;;;;9.18;2.62;;;;;;;;;;4420675;32;20315;-57
2021/05/30 13:03:04;;;;;;;5.50;2.97;;;;;;;;;;4420681;32;20229;-57
2021/05/30 13:05:36;;;;;;;4.72;2.58;;;;;;;;;;4420183;32;20217;-57
2021/05/30 13:08:25;;;;;;;5.47;2.65;;;;;;;;;;4420606;32;20209;-57
2021/05/30 13:10:59;;;;;;;9.68;2.70;;;;;;;;;;4420191;32;20234;-56
2021/05/30 13:13:33;;;;;;;5.45;3.45;;;;;;;;;;4420137;32;20296;-57
2021/05/30 13:16:00;;;;;;;3.25;2.72;;;;;;;;;;4406371;32;20259;-56
2021/05/30 13:18:28;;;;;;;3.55;3.10;;;;;;;;;;4420091;32;20646;-58
2021/05/30 13:20:53;;;;;;;3.20;2.90;;;;;;;;;;4420157;32;20221;-58
2021/05/30 13:23:27;;;;;;;4.70;2.87;;;;;;;;;;4420100;32;20255;-57
2021/05/30 13:26:13;;;;;;;7.12;3.25;;;;;;;;;;4406444;32;20278;-56
2021/05/30 13:28:42;;;;;;;5.20;3.42;;;;;;;;;;4420346;32;20216;-56
2021/05/30 13:31:15;;;;;;;4.32;3.40;;;;;;;;;;4419707;32;20293;-58
2021/05/30 13:33:45;;;;;;;5.43;2.83;;;;;;;;;;4419814;32;20205;-58
2021/05/30 13:36:12;;;;;;;5.15;3.50;;;;;;;;;;4405911;32;20229;-58
2021/05/30 13:38:38;;;;;;;5.62;4.68;;;;;;;;;;4419618;32;20262;-57
2021/05/30 13:41:20;;;;;;;7.03;3.53;;;;;;;;;;4419645;32;20801;-57
2021/05/30 13:43:46;;;;;;;3.97;3.20;;;;;;;;;;4419011;32;20381;-57
2021/05/30 13:46:11;;;;;;;5.57;3.58;;;;;;;;;;4419376;32;20225;-58
2021/05/30 13:48:37;;;;;;;5.32;2.92;;;;;;;;;;4419174;32;20253;-57
2021/05/30 13:51:09;;;;;;;5.25;3.12;;;;;;;;;;4419066;32;20407;-57
2021/05/30 13:53:40;;;;;;;6.53;3.53;;;;;;;;;;4418992;32;20294;-57
2021/05/30 13:56:05;;;;;;;12.50;3.35;;;;;;;;;;4419214;32;20310;-58
2021/05/30 13:58:32;;;;;;;7.65;3.75;;;;;;;;;;4419128;32;20673;-58
2021/05/30 14:00:58;;;;;;;9.68;3.37;;;;;;;;;;4405359;32;20387;-58
2021/05/30 14:03:24;;;;;;;8.23;3.90;;;;;;;;;;4418996;32;20240;-58
2021/05/30 14:05:50;;;;;;;6.03;4.00;;;;;;;;;;4419046;32;20234;-58
2021/05/30 14:08:15;;;;;;;4.05;3.65;;;;;;;;;;4418102;32;20285;-58
2021/05/30 14:10:41;;;;;;;4.12;3.55;;;;;;;;;;4418956;32;20715;-58
2021/05/30 14:13:06;;;;;;;9.60;4.10;;;;;;;;;;4419160;32;20764;-60
2021/05/30 14:15:32;;;;;;;5.68;3.47;;;;;;;;;;4419295;32;20379;-60
2021/05/30 14:17:57;;;;;;;6.37;3.45;;;;;;;;;;4419625;32;20625;-58
2021/05/30 14:20:23;;;;;;;4.82;3.58;;;;;;;;;;4419909;32;20288;-58
2021/05/30 14:22:49;;;;;;;7.50;3.85;;;;;;;;;;4419732;32;20209;-59
2021/05/30 14:25:15;;;;;;;8.57;3.78;;;;;;;;;;4419245;32;20327;-59
2021/05/30 14:27:41;;;;;;;5.72;4.65;;;;;;;;;;4419763;32;20243;-58
2021/05/30 14:30:10;;;;;;;6.57;3.72;;;;;;;;;;4419307;32;20346;-59
2021/05/30 14:32:36;;;;;;;6.35;4.47;;;;;;;;;;4419229;32;20334;-59
2021/05/30 14:35:07;;;;;;;6.12;3.60;;;;;;;;;;4418779;32;20602;-59
2021/05/30 14:37:37;;;;;;;5.47;4.18;;;;;;;;;;4418692;32;20316;-59
2021/05/30 14:40:06;;;;;;;7.30;3.92;;;;;;;;;;4418745;32;20278;-59
2021/05/30 14:42:32;;;;;;;6.87;3.37;;;;;;;;;;4419085;32;20391;-59
2021/05/30 14:44:59;;;;;;;6.72;3.70;;;;;;;;;;4404830;32;20217;-59
2021/05/30 14:47:24;;;;;;;4.62;4.20;;;;;;;;;;4418732;32;20277;-60
2021/05/30 14:49:52;;;;;;;10.07;4.20;;;;;;;;;;4404911;32;20224;-59
2021/05/30 14:52:18;;;;;;;7.82;4.45;;;;;;;;;;4418657;32;20247;-59